Hauptseite
METAR-TAF:

METAR-TAF

Flughäfen :

Flughafen Sitten

Sion, Schweiz

Breite: 46-13N, Länge: 007-20E, Höhe: 482 m

Beobachtung

Neuester Wetterbericht von vor 32 Minuten, um 01:20 UTC
Wind 1 kt aus unterschiedlichen Richtungen
Temperatur 19°C
Luftfeuchtigkeit 64%
Luftdruck 1015 hPa
Sichtweite 10 km oder mehr
keine Wolken unter 1500 m und keine Kumulonimbus oder Gewitterwolken

METAR: LSGS 170120Z AUTO VRB01KT CAVOK 19/12 Q1015

Zeit: 03:52 (01:52 UTC)

Prognose

Neuester Wetterbericht von vor 11 Stunden und 27 Minuten, um 14:25 UTC
Gültige Prognose vom 16 um 15 UTC bis 16 um 24 UTC
Wind 15 kt aus West/Südwest
Sichtweite 10 km oder mehr
Leicht bewölkt in der Höhe von 11000 ft
Übergehend zu
vom 16 um 17 UTC bis 16 um 19 UTC
Wind 3 kt aus unterschiedlichen Richtungen

TAF: LSGS 161425Z 1615/1624 25015KT 9999 FEW110 BECMG 1617/1619 VRB03KT

Wetterbeobachtungen und Prognosen von mehr als 4000 Flughäfen (METAR und TAF Bericht).

Die verfügbaren Stationen werden durch gelbe und rote Markierungen auf der Karte dargestellt.

Führen Sie die Maus auf sie, um den Namen der Station zu sehen.

Darauf klicken, um die Beobachtung von Wetterbeobachtungen und Prognosen zu sehen.

Um die Karte zu ändern : klicken Sie auf den grünen Tasten mit einem schwarzen Kreuz Zum Vergrößern, auf den grünen Button mit einem Gedankenstrich zu verkleinern, oder auf die grünen Pfeile für benachbarte Karten.


METAR-TAF: